Time;durP1;ratioP1;P1;durP2;ratioP2;P2;SDS_P1;SDS_P2;PMS_P1;PMS_P2;Temp;Humidity;BMP_temperature;BMP_pressure;BME280_temperature;BME280_humidity;BME280_pressure;Samples;Min_cycle;Max_cycle;Signal;HPM_P1;HPM_P2
2024/01/21 00:01:16;;;;;;;65.13;29.60;;;-0.70;99.90;;;;;;5015682;28;20809;-69
2024/01/21 00:03:42;;;;;;;59.90;29.20;;;-0.90;99.90;;;;;;5021339;28;20224;-68
2024/01/21 00:06:08;;;;;;;61.53;27.83;;;-1.10;99.90;;;;;;5022475;28;20427;-67
2024/01/21 00:08:33;;;;;;;59.70;29.47;;;-0.90;99.90;;;;;;5016944;28;20423;-67
2024/01/21 00:10:59;;;;;;;87.13;29.80;;;-0.90;99.90;;;;;;5019265;28;20215;-67
2024/01/21 00:13:25;;;;;;;61.13;31.13;;;-1.10;99.90;;;;;;5015884;28;20791;-67
2024/01/21 00:15:50;;;;;;;63.17;30.40;;;-1.20;99.90;;;;;;5016400;28;20177;-67
2024/01/21 00:18:16;;;;;;;79.07;30.17;;;-1.20;99.90;;;;;;5020988;28;20185;-68
2024/01/21 00:20:42;;;;;;;61.83;28.23;;;-1.10;99.90;;;;;;5015199;28;20180;-67
2024/01/21 00:23:08;;;;;;;68.23;30.30;;;-1.10;99.90;;;;;;5020700;28;20427;-68
2024/01/21 00:25:34;;;;;;;70.70;31.53;;;-1.20;99.90;;;;;;5022167;28;20196;-67
2024/01/21 00:28:00;;;;;;;70.20;28.60;;;-1.10;99.90;;;;;;5016852;28;20929;-68
2024/01/21 00:30:25;;;;;;;68.57;31.10;;;-1.10;99.90;;;;;;5012433;28;20209;-68
2024/01/21 00:32:51;;;;;;;90.07;33.47;;;-1.00;99.90;;;;;;5012587;28;20188;-67
2024/01/21 00:35:16;;;;;;;63.80;29.77;;;-1.10;99.90;;;;;;5019088;28;20303;-68
2024/01/21 00:37:42;;;;;;;73.87;29.27;;;-1.20;99.90;;;;;;5014142;28;20219;-68
2024/01/21 00:40:08;;;;;;;64.63;28.27;;;-1.10;99.90;;;;;;5015802;28;20189;-68
2024/01/21 00:42:34;;;;;;;72.83;31.37;;;-1.00;99.90;;;;;;5019130;28;20215;-68
2024/01/21 00:45:00;;;;;;;80.70;31.70;;;-1.00;99.90;;;;;;5020465;28;20454;-68
2024/01/21 00:47:27;;;;;;;61.97;26.93;;;-1.00;99.90;;;;;;5017506;28;20422;-67
2024/01/21 00:49:52;;;;;;;62.47;28.60;;;-0.90;99.90;;;;;;5011826;28;20475;-68
2024/01/21 00:52:18;;;;;;;75.63;30.53;;;-0.70;99.90;;;;;;5014635;28;20465;-68
2024/01/21 00:54:44;;;;;;;74.03;31.23;;;-0.80;99.90;;;;;;5020219;28;20248;-68
2024/01/21 00:57:09;;;;;;;81.80;32.17;;;-0.80;99.90;;;;;;5017393;28;20744;-68
2024/01/21 00:59:35;;;;;;;66.17;28.53;;;-0.80;99.90;;;;;;5020380;28;20643;-68
2024/01/21 01:02:01;;;;;;;68.47;30.10;;;-1.10;99.90;;;;;;5020192;28;20238;-68
2024/01/21 01:04:26;;;;;;;82.60;33.60;;;-1.20;99.90;;;;;;5021239;28;20236;-68
2024/01/21 01:06:52;;;;;;;79.20;32.20;;;-1.20;99.90;;;;;;5015859;28;20202;-67
2024/01/21 01:09:17;;;;;;;58.77;29.47;;;-1.20;99.90;;;;;;5019726;28;20699;-67
2024/01/21 01:11:43;;;;;;;61.90;28.77;;;-1.20;99.90;;;;;;5015663;28;20196;-68
2024/01/21 01:14:08;;;;;;;80.33;32.40;;;-1.10;99.90;;;;;;5013877;28;20900;-68
2024/01/21 01:16:39;;;;;;;75.87;33.80;;;-0.90;99.90;;;;;;5017304;28;20188;-68
2024/01/21 01:19:05;;;;;;;68.80;29.37;;;-0.80;99.90;;;;;;5013346;28;20216;-68
2024/01/21 01:21:31;;;;;;;66.23;30.77;;;-0.80;99.90;;;;;;5019730;28;20423;-68
2024/01/21 01:23:57;;;;;;;59.00;27.17;;;-0.80;99.90;;;;;;5013497;28;20447;-69
2024/01/21 01:26:22;;;;;;;67.80;28.97;;;-0.80;99.90;;;;;;5015974;28;20654;-68
2024/01/21 01:28:48;;;;;;;57.30;29.53;;;-0.70;99.90;;;;;;5010384;28;20441;-68
2024/01/21 01:31:20;;;;;;;70.13;29.50;;;-0.70;99.90;;;;;;5012629;28;20218;-68
2024/01/21 01:33:46;;;;;;;75.73;30.60;;;-0.80;99.90;;;;;;5011002;28;20706;-68
2024/01/21 01:36:12;;;;;;;66.03;29.70;;;-0.80;99.90;;;;;;5016940;28;21025;-68
2024/01/21 01:38:38;;;;;;;67.00;30.80;;;-0.90;99.90;;;;;;5015094;28;20423;-68
2024/01/21 01:41:04;;;;;;;59.23;27.50;;;-0.80;99.90;;;;;;5012651;28;20504;-68
2024/01/21 01:43:30;;;;;;;69.17;29.97;;;-0.70;99.90;;;;;;5008497;28;20543;-68
2024/01/21 01:45:59;;;;;;;71.17;30.10;;;-0.70;99.90;;;;;;5012425;28;21861;-68
2024/01/21 01:48:25;;;;;;;63.37;31.10;;;-0.70;99.90;;;;;;5015655;28;20423;-68
2024/01/21 01:50:51;;;;;;;64.00;27.87;;;-0.70;99.90;;;;;;5010234;28;20469;-68
2024/01/21 01:53:17;;;;;;;68.10;30.87;;;-0.70;99.90;;;;;;5011411;28;20438;-68
2024/01/21 01:55:44;;;;;;;68.23;29.10;;;-0.70;99.90;;;;;;5019788;28;20984;-68
2024/01/21 01:58:14;;;;;;;60.37;28.10;;;-0.70;99.90;;;;;;5015638;28;20186;-68
2024/01/21 02:00:41;;;;;;;62.60;30.50;;;-0.60;99.90;;;;;;5008489;28;20438;-68
2024/01/21 02:03:07;;;;;;;59.70;28.77;;;-0.60;99.90;;;;;;5016646;28;20445;-68
2024/01/21 02:05:33;;;;;;;60.60;27.33;;;-0.50;99.90;;;;;;5012063;28;20749;-68
2024/01/21 02:07:58;;;;;;;56.97;26.80;;;-0.60;99.90;;;;;;5010710;28;20461;-68
2024/01/21 02:10:24;;;;;;;54.70;24.83;;;-0.70;99.90;;;;;;5016673;28;20223;-68
2024/01/21 02:12:53;;;;;;;71.50;30.30;;;-0.60;99.90;;;;;;5012996;28;20206;-68
2024/01/21 02:15:19;;;;;;;61.83;27.20;;;-0.60;99.90;;;;;;5010546;28;20177;-68
2024/01/21 02:17:44;;;;;;;55.73;27.43;;;-0.60;99.90;;;;;;5019615;28;20807;-68
2024/01/21 02:20:10;;;;;;;59.50;27.20;;;-0.70;99.90;;;;;;5007849;28;20223;-68
2024/01/21 02:22:41;;;;;;;57.70;25.13;;;-0.60;99.90;;;;;;5011326;28;20201;-68
2024/01/21 02:25:07;;;;;;;62.87;26.80;;;-0.60;99.90;;;;;;5016903;28;20202;-68
2024/01/21 02:27:33;;;;;;;58.33;28.60;;;-0.60;99.90;;;;;;5009892;28;21014;-68
2024/01/21 02:29:59;;;;;;;56.60;25.00;;;-0.60;99.90;;;;;;5012197;28;21650;-68
2024/01/21 02:32:25;;;;;;;58.93;26.20;;;-0.50;99.90;;;;;;5013773;28;20423;-67
2024/01/21 02:34:51;;;;;;;54.63;23.97;;;-0.50;99.90;;;;;;5010556;28;20206;-67
2024/01/21 02:37:16;;;;;;;55.67;23.83;;;-0.60;99.90;;;;;;5013594;28;20429;-68
2024/01/21 02:39:42;;;;;;;55.93;24.97;;;-0.70;99.90;;;;;;5012932;28;20241;-67
2024/01/21 02:42:07;;;;;;;60.27;25.60;;;-0.70;99.90;;;;;;5012292;28;20189;-67
2024/01/21 02:44:33;;;;;;;52.57;23.97;;;-0.60;99.90;;;;;;5010272;28;20206;-67
2024/01/21 02:46:58;;;;;;;50.00;22.87;;;-0.70;99.90;;;;;;5013146;28;20176;-67
2024/01/21 02:49:28;;;;;;;51.00;23.17;;;-0.80;99.90;;;;;;5008443;28;20191;-68
2024/01/21 02:51:53;;;;;;;57.30;24.90;;;-0.70;99.90;;;;;;5012838;28;20206;-67
2024/01/21 02:54:19;;;;;;;50.80;23.60;;;-0.70;99.90;;;;;;5011770;28;21590;-67
2024/01/21 02:56:44;;;;;;;62.80;26.30;;;-0.60;99.90;;;;;;5013347;28;20179;-67
2024/01/21 02:59:10;;;;;;;67.00;27.23;;;-0.60;99.90;;;;;;5008908;28;20190;-67
2024/01/21 03:01:36;;;;;;;60.77;25.73;;;-0.60;99.90;;;;;;5015775;28;20508;-67
2024/01/21 03:04:01;;;;;;;55.17;25.23;;;-0.60;99.90;;;;;;5016057;28;20381;-67
2024/01/21 03:06:27;;;;;;;58.60;24.93;;;-0.70;99.90;;;;;;5017956;28;20554;-67
2024/01/21 03:08:52;;;;;;;53.37;24.03;;;-0.70;99.90;;;;;;5015920;28;20534;-67
2024/01/21 03:11:18;;;;;;;51.90;24.47;;;-0.80;99.90;;;;;;5008929;28;20210;-67
2024/01/21 03:13:43;;;;;;;54.93;23.90;;;-0.70;99.90;;;;;;5014772;28;20211;-66
2024/01/21 03:16:11;;;;;;;61.63;24.93;;;-0.70;99.90;;;;;;5023771;28;20199;-67
2024/01/21 03:18:38;;;;;;;53.60;24.50;;;-0.80;99.90;;;;;;5019268;28;20542;-67
2024/01/21 03:21:06;;;;;;;62.07;28.13;;;-0.80;99.90;;;;;;5012652;28;20481;-67
2024/01/21 03:23:32;;;;;;;60.40;26.70;;;-0.80;99.90;;;;;;5018201;28;20472;-66
2024/01/21 03:25:57;;;;;;;59.80;25.87;;;-0.70;99.90;;;;;;5012149;28;20949;-67
2024/01/21 03:28:23;;;;;;;57.37;23.03;;;-0.90;99.90;;;;;;5014307;28;20192;-67
2024/01/21 03:30:49;;;;;;;56.07;23.73;;;-1.00;99.90;;;;;;5006222;28;20951;-67
2024/01/21 03:33:14;;;;;;;53.40;23.37;;;-1.10;99.90;;;;;;5010307;28;20203;-67
2024/01/21 03:35:40;;;;;;;51.93;23.80;;;-1.20;99.90;;;;;;5009870;28;20764;-67
2024/01/21 03:38:06;;;;;;;57.43;23.90;;;-1.00;99.90;;;;;;5016578;28;20212;-66
2024/01/21 03:40:31;;;;;;;58.90;24.77;;;-0.90;99.90;;;;;;5008865;28;20629;-67
2024/01/21 03:42:57;;;;;;;65.80;24.90;;;-0.80;99.90;;;;;;5010961;28;20200;-67
2024/01/21 03:45:22;;;;;;;52.07;22.73;;;-0.80;99.90;;;;;;5014410;28;20191;-67
2024/01/21 03:47:48;;;;;;;52.63;22.40;;;-0.80;99.90;;;;;;5013406;28;20264;-67
2024/01/21 03:50:18;;;;;;;46.57;21.97;;;-0.80;99.90;;;;;;5010484;28;20845;-67
2024/01/21 03:52:44;;;;;;;50.43;20.50;;;-0.90;99.90;;;;;;5015607;28;20208;-69
2024/01/21 03:55:10;;;;;;;49.23;22.63;;;-1.00;99.90;;;;;;5011420;28;20544;-68
2024/01/21 03:57:36;;;;;;;47.63;21.17;;;-1.00;99.90;;;;;;5013543;28;20509;-68
2024/01/21 04:00:02;;;;;;;50.60;22.50;;;-1.10;99.90;;;;;;5016365;28;20189;-68
2024/01/21 04:02:29;;;;;;;50.03;23.57;;;-1.00;99.90;;;;;;5011302;28;20442;-68
2024/01/21 04:04:55;;;;;;;46.50;20.07;;;-1.10;99.90;;;;;;5012407;28;20461;-68
2024/01/21 04:07:21;;;;;;;49.83;22.17;;;-1.20;99.90;;;;;;5011903;28;20461;-67
2024/01/21 04:09:46;;;;;;;45.20;22.27;;;-1.20;99.90;;;;;;5010952;28;20246;-67
2024/01/21 04:12:15;;;;;;;49.70;19.37;;;-1.20;99.90;;;;;;5008909;28;20558;-67
2024/01/21 04:14:41;;;;;;;32.10;18.40;;;-1.20;99.90;;;;;;5014428;28;20217;-67
2024/01/21 04:17:07;;;;;;;41.00;19.67;;;-1.10;99.90;;;;;;5014449;28;20517;-66
2024/01/21 04:19:32;;;;;;;38.33;18.87;;;-1.10;99.90;;;;;;5011124;28;20512;-67
2024/01/21 04:21:59;;;;;;;44.00;20.10;;;-1.20;99.90;;;;;;5009122;28;20182;-67
2024/01/21 04:24:24;;;;;;;43.73;20.00;;;-1.30;99.90;;;;;;5022666;28;20322;-68
2024/01/21 04:26:50;;;;;;;45.87;20.20;;;-1.20;99.90;;;;;;5018112;28;20857;-67
2024/01/21 04:29:15;;;;;;;46.90;21.47;;;-1.20;99.90;;;;;;5010294;28;20193;-67
2024/01/21 04:31:44;;;;;;;47.80;22.13;;;-1.20;99.90;;;;;;5016133;28;20211;-68
2024/01/21 04:34:10;;;;;;;43.03;19.37;;;-1.30;99.90;;;;;;5019369;28;20876;-67
2024/01/21 04:36:35;;;;;;;43.20;20.67;;;-1.30;99.90;;;;;;5011601;28;20514;-67
2024/01/21 04:39:01;;;;;;;47.57;18.40;;;-1.40;99.90;;;;;;5011355;28;20205;-67
2024/01/21 04:41:27;;;;;;;44.30;20.20;;;-1.40;99.90;;;;;;5019270;28;20274;-68
2024/01/21 04:43:52;;;;;;;43.00;18.97;;;-1.40;99.90;;;;;;5016048;28;20824;-68
2024/01/21 04:46:18;;;;;;;43.50;20.37;;;-1.30;99.90;;;;;;5010700;28;20657;-68
2024/01/21 04:48:43;;;;;;;52.10;23.07;;;-1.40;99.90;;;;;;5013458;28;20202;-67
2024/01/21 04:51:10;;;;;;;46.73;19.80;;;-1.50;99.90;;;;;;5013804;28;20580;-67
2024/01/21 04:53:39;;;;;;;44.77;20.47;;;-1.60;99.90;;;;;;5016156;28;20206;-68
2024/01/21 04:56:05;;;;;;;42.10;19.27;;;-1.60;99.90;;;;;;5025736;28;20429;-68
2024/01/21 04:58:32;;;;;;;46.60;19.10;;;-1.40;99.90;;;;;;5017615;28;20544;-68
2024/01/21 05:00:57;;;;;;;46.97;20.70;;;-1.60;99.90;;;;;;5012539;28;20416;-67
2024/01/21 05:03:23;;;;;;;49.50;20.30;;;-1.70;99.90;;;;;;5016988;28;20447;-67
2024/01/21 05:05:49;;;;;;;40.60;20.50;;;-1.60;99.90;;;;;;5017338;28;20697;-67
2024/01/21 05:08:15;;;;;;;52.57;22.57;;;-1.60;99.90;;;;;;5018319;28;20202;-67
2024/01/21 05:10:40;;;;;;;47.47;19.93;;;-1.50;99.90;;;;;;5010198;28;20477;-67
2024/01/21 05:13:06;;;;;;;46.50;20.40;;;-1.50;99.90;;;;;;5015849;28;20189;-67
2024/01/21 05:15:31;;;;;;;49.00;22.60;;;-1.60;99.90;;;;;;5016451;28;20187;-67
2024/01/21 05:17:57;;;;;;;47.10;21.63;;;-1.50;99.90;;;;;;5012729;28;20609;-67
2024/01/21 05:20:23;;;;;;;54.97;22.37;;;-1.80;99.90;;;;;;5014814;28;20186;-67
2024/01/21 05:22:50;;;;;;;52.03;22.70;;;-1.90;99.90;;;;;;5016362;28;20236;-67
2024/01/21 05:25:18;;;;;;;50.20;20.80;;;-2.20;99.90;;;;;;5015544;28;20873;-67
2024/01/21 05:27:44;;;;;;;43.10;19.47;;;-2.20;99.90;;;;;;5014960;28;20423;-67
2024/01/21 05:30:12;;;;;;;39.60;19.70;;;-2.10;99.90;;;;;;5013620;28;20466;-67
2024/01/21 05:32:38;;;;;;;46.47;21.77;;;-2.10;99.90;;;;;;5014874;28;20725;-68
2024/01/21 05:35:04;;;;;;;48.63;20.63;;;-1.90;99.90;;;;;;5016900;28;20540;-68
2024/01/21 05:37:29;;;;;;;48.57;20.33;;;-1.80;99.90;;;;;;5014702;28;20526;-67
2024/01/21 05:39:55;;;;;;;47.03;22.00;;;-1.70;99.90;;;;;;5011805;28;20190;-67
2024/01/21 05:42:20;;;;;;;46.67;20.13;;;-1.60;99.90;;;;;;5009674;28;20213;-67
2024/01/21 05:44:46;;;;;;;49.73;20.00;;;-1.60;99.90;;;;;;5010984;28;20256;-67
2024/01/21 05:47:11;;;;;;;45.93;20.97;;;-1.60;99.90;;;;;;5015917;28;20208;-67
2024/01/21 05:49:37;;;;;;;44.93;19.97;;;-1.60;99.90;;;;;;5022199;28;20302;-68
2024/01/21 05:52:03;;;;;;;43.07;19.87;;;-1.90;99.90;;;;;;5008749;28;20198;-68
2024/01/21 05:54:28;;;;;;;44.00;19.60;;;-1.90;99.90;;;;;;5011110;28;20280;-67
2024/01/21 05:56:54;;;;;;;38.47;18.00;;;-2.00;99.90;;;;;;5010227;28;20445;-68
2024/01/21 05:59:20;;;;;;;43.33;21.33;;;-1.90;99.90;;;;;;5018159;28;20220;-68
2024/01/21 06:01:50;;;;;;;44.10;20.53;;;-1.90;99.90;;;;;;5006920;28;20190;-68
2024/01/21 06:04:18;;;;;;;41.67;19.63;;;-1.90;99.90;;;;;;5016722;28;20446;-68
2024/01/21 06:06:44;;;;;;;37.07;19.10;;;-1.70;99.90;;;;;;5011312;28;20659;-68
2024/01/21 06:09:10;;;;;;;40.00;18.60;;;-1.60;99.90;;;;;;5019346;28;20444;-68
2024/01/21 06:11:38;;;;;;;44.03;21.03;;;-1.60;99.90;;;;;;5010098;28;20468;-68
2024/01/21 06:14:03;;;;;;;43.97;22.07;;;-1.60;99.90;;;;;;5015333;28;20680;-68
2024/01/21 06:16:29;;;;;;;47.20;23.00;;;-1.60;99.90;;;;;;5006571;28;20509;-68
2024/01/21 06:18:55;;;;;;;49.00;24.63;;;-1.50;99.90;;;;;;5019779;28;20216;-68
2024/01/21 06:21:20;;;;;;;54.90;24.17;;;-1.40;99.90;;;;;;5015707;28;20431;-68
2024/01/21 06:23:46;;;;;;;50.70;22.90;;;-1.40;99.90;;;;;;5015162;28;20805;-68
2024/01/21 06:26:19;;;;;;;54.07;24.33;;;-1.40;99.90;;;;;;5008982;28;20293;-68
2024/01/21 06:28:46;;;;;;;45.13;23.07;;;-1.30;99.90;;;;;;5012406;28;20733;-68
2024/01/21 06:31:12;;;;;;;53.20;23.77;;;-1.30;99.90;;;;;;5014888;28;20472;-68
2024/01/21 06:33:38;;;;;;;45.30;22.37;;;-1.30;99.90;;;;;;5014974;28;20449;-68
2024/01/21 06:36:04;;;;;;;46.80;23.63;;;-1.30;99.90;;;;;;5016640;28;20185;-68
2024/01/21 06:38:30;;;;;;;49.50;24.00;;;-1.30;99.90;;;;;;5018141;28;20434;-68
2024/01/21 06:40:55;;;;;;;50.07;23.70;;;-1.40;99.90;;;;;;5008174;28;21405;-68
2024/01/21 06:43:21;;;;;;;47.57;21.27;;;-1.30;99.90;;;;;;5007980;28;20925;-68
2024/01/21 06:45:46;;;;;;;44.07;20.93;;;-1.40;99.90;;;;;;5009348;28;21540;-68
2024/01/21 06:48:12;;;;;;;43.77;21.07;;;-1.40;99.90;;;;;;5010467;28;20199;-68
2024/01/21 06:50:38;;;;;;;47.47;22.40;;;-1.40;99.90;;;;;;5005164;28;20264;-69
2024/01/21 06:53:03;;;;;;;45.20;22.00;;;-1.40;99.90;;;;;;5014552;28;20175;-68
2024/01/21 06:55:29;;;;;;;45.33;22.80;;;-1.40;99.90;;;;;;5014119;28;20665;-68
2024/01/21 06:57:55;;;;;;;49.33;23.40;;;-1.40;99.90;;;;;;5016503;28;20240;-68
2024/01/21 07:00:21;;;;;;;49.67;22.90;;;-1.40;99.90;;;;;;5003344;28;20321;-68
2024/01/21 07:02:46;;;;;;;47.77;23.67;;;-1.40;99.90;;;;;;5007452;28;20667;-67
2024/01/21 07:05:12;;;;;;;48.67;22.70;;;-1.40;99.90;;;;;;5007232;28;20448;-67
2024/01/21 07:07:38;;;;;;;47.80;24.17;;;-1.40;99.90;;;;;;5012620;28;20530;-68
2024/01/21 07:10:04;;;;;;;42.47;21.27;;;-1.50;99.90;;;;;;5014573;28;20684;-68
2024/01/21 07:12:29;;;;;;;46.43;22.50;;;-1.50;99.90;;;;;;5007696;28;20258;-68
2024/01/21 07:14:55;;;;;;;50.23;21.13;;;-1.70;99.90;;;;;;5013596;28;20198;-68
2024/01/21 07:17:21;;;;;;;47.37;21.87;;;-1.60;99.90;;;;;;5008969;28;20211;-68
2024/01/21 07:19:47;;;;;;;51.10;22.27;;;-1.60;99.90;;;;;;5015971;28;20990;-68
2024/01/21 07:22:12;;;;;;;41.03;19.57;;;-1.60;99.90;;;;;;5016753;28;20420;-68
2024/01/21 07:24:38;;;;;;;43.23;22.40;;;-1.60;99.90;;;;;;5009094;28;20206;-68
2024/01/21 07:27:04;;;;;;;51.60;23.10;;;-1.50;99.90;;;;;;5015733;28;20380;-68
2024/01/21 07:29:29;;;;;;;47.30;22.20;;;-1.50;99.90;;;;;;5009245;28;20189;-68
2024/01/21 07:31:55;;;;;;;43.90;22.83;;;-1.50;99.90;;;;;;5014237;28;20704;-68
2024/01/21 07:34:22;;;;;;;45.50;21.60;;;-1.40;99.90;;;;;;5015074;28;20208;-68
2024/01/21 07:36:48;;;;;;;41.07;19.17;;;-1.50;99.90;;;;;;5014391;28;20630;-68
2024/01/21 07:39:13;;;;;;;42.57;21.50;;;-1.60;99.90;;;;;;5012256;28;20849;-68
2024/01/21 07:41:39;;;;;;;47.30;22.73;;;-1.50;99.90;;;;;;5014591;28;20189;-68
2024/01/21 07:44:05;;;;;;;42.10;20.10;;;-1.50;99.90;;;;;;5012611;28;20296;-68
2024/01/21 07:46:30;;;;;;;49.00;21.67;;;-1.40;99.90;;;;;;5015468;28;20192;-67
2024/01/21 07:48:56;;;;;;;44.17;22.03;;;-1.40;99.90;;;;;;5017600;28;20191;-68
2024/01/21 07:51:21;;;;;;;35.27;20.33;;;-1.30;99.90;;;;;;5013920;28;20223;-68
2024/01/21 07:53:47;;;;;;;44.73;21.10;;;-1.30;99.90;;;;;;5018606;28;20210;-68
2024/01/21 07:56:13;;;;;;;43.17;21.50;;;-1.30;99.90;;;;;;5019405;28;20179;-69
2024/01/21 07:58:39;;;;;;;41.57;21.03;;;-1.20;99.90;;;;;;5015056;28;20212;-67
2024/01/21 08:01:10;;;;;;;49.03;21.93;;;-1.20;99.90;;;;;;5015659;28;20446;-68
2024/01/21 08:03:36;;;;;;;39.20;20.90;;;-1.20;99.90;;;;;;5013529;28;20724;-68
2024/01/21 08:06:04;;;;;;;45.47;21.17;;;-1.20;99.90;;;;;;5017129;28;20475;-68
2024/01/21 08:08:30;;;;;;;49.57;22.73;;;-1.10;99.90;;;;;;5017780;28;20894;-67
2024/01/21 08:10:55;;;;;;;45.87;22.13;;;-1.10;99.90;;;;;;5015143;28;20555;-67
2024/01/21 08:13:21;;;;;;;41.77;19.37;;;-1.00;99.90;;;;;;5015766;28;21026;-67
2024/01/21 08:15:47;;;;;;;40.70;20.13;;;-1.00;99.90;;;;;;5015274;28;20264;-67
2024/01/21 08:18:13;;;;;;;39.80;20.07;;;-0.90;99.90;;;;;;5014850;28;20628;-67
2024/01/21 08:20:38;;;;;;;43.27;22.50;;;-0.90;99.90;;;;;;5012576;28;20178;-68
2024/01/21 08:23:04;;;;;;;47.03;20.50;;;-0.90;99.90;;;;;;5017853;28;20485;-68
2024/01/21 08:25:29;;;;;;;38.73;20.23;;;-0.80;99.90;;;;;;5014476;28;20181;-67
2024/01/21 08:27:55;;;;;;;36.43;19.50;;;-0.80;99.90;;;;;;5018039;28;20208;-67
2024/01/21 08:30:21;;;;;;;44.33;21.97;;;-0.80;99.90;;;;;;5010492;28;20220;-67
2024/01/21 08:32:46;;;;;;;37.50;19.47;;;-0.70;99.90;;;;;;5014874;28;20195;-68
2024/01/21 08:35:12;;;;;;;38.73;19.30;;;-0.80;99.90;;;;;;5010983;28;20206;-68
2024/01/21 08:37:38;;;;;;;41.87;19.43;;;-0.90;99.90;;;;;;5016950;28;20212;-68
2024/01/21 08:40:04;;;;;;;37.37;18.60;;;-0.90;99.90;;;;;;5018601;28;20183;-68
2024/01/21 08:42:30;;;;;;;34.27;19.53;;;-0.90;99.90;;;;;;5012577;28;20188;-68
2024/01/21 08:44:56;;;;;;;34.73;17.60;;;-0.90;99.90;;;;;;5018091;28;20454;-68
2024/01/21 08:47:22;;;;;;;41.57;21.43;;;-0.90;99.90;;;;;;5013014;28;20455;-68
2024/01/21 08:49:48;;;;;;;39.17;19.07;;;-0.90;99.90;;;;;;5011682;28;20486;-68
2024/01/21 08:52:13;;;;;;;45.27;21.07;;;-0.90;99.90;;;;;;5012513;28;20645;-68
2024/01/21 08:54:39;;;;;;;36.87;19.80;;;-0.90;99.90;;;;;;5015799;28;20438;-68
2024/01/21 08:57:05;;;;;;;42.53;21.50;;;-0.70;99.90;;;;;;5017414;28;20191;-67
2024/01/21 08:59:30;;;;;;;37.03;20.07;;;-0.60;99.90;;;;;;5012053;28;20858;-68
2024/01/21 09:01:56;;;;;;;33.33;19.17;;;-0.50;99.90;;;;;;5017758;28;20191;-68
2024/01/21 09:04:22;;;;;;;36.67;19.10;;;-0.50;99.90;;;;;;5014034;28;20257;-69
2024/01/21 09:06:47;;;;;;;36.90;19.77;;;-0.60;99.90;;;;;;5016174;28;20219;-68
2024/01/21 09:09:13;;;;;;;34.23;18.03;;;-0.70;99.90;;;;;;5015607;28;20632;-68
2024/01/21 09:11:39;;;;;;;39.07;19.47;;;-0.60;99.90;;;;;;5014980;28;20617;-68
2024/01/21 09:14:06;;;;;;;35.50;17.40;;;-0.70;99.90;;;;;;5016503;28;20207;-68
2024/01/21 09:16:32;;;;;;;40.77;21.70;;;-0.90;99.90;;;;;;5012906;28;20442;-68
2024/01/21 09:18:58;;;;;;;41.50;20.50;;;-0.80;99.90;;;;;;5015404;28;20431;-68
2024/01/21 09:21:24;;;;;;;36.30;19.43;;;-0.70;99.90;;;;;;5010801;28;20419;-68
2024/01/21 09:23:50;;;;;;;42.53;21.00;;;-0.70;99.90;;;;;;5013154;28;20568;-68
2024/01/21 09:26:16;;;;;;;38.03;18.77;;;-0.60;99.90;;;;;;5015723;28;20429;-68
2024/01/21 09:28:43;;;;;;;31.83;16.67;;;-0.50;99.90;;;;;;5011154;28;20463;-67
2024/01/21 09:31:09;;;;;;;35.23;18.13;;;-0.60;99.90;;;;;;5018523;28;20207;-68
2024/01/21 09:33:35;;;;;;;33.90;17.30;;;-0.80;99.90;;;;;;5015084;28;20454;-68
2024/01/21 09:36:01;;;;;;;32.80;18.07;;;-1.00;99.90;;;;;;5016048;28;20587;-68
2024/01/21 09:38:27;;;;;;;40.00;19.60;;;-0.90;99.90;;;;;;5018719;28;20422;-68
2024/01/21 09:41:34;;;;;;;31.03;17.27;;;-0.80;99.90;;;;;;5013987;28;21226;-68
2024/01/21 09:44:01;;;;;;;31.13;16.70;;;-0.70;99.90;;;;;;5012199;28;20220;-68
2024/01/21 09:46:27;;;;;;;37.17;18.97;;;-0.70;99.90;;;;;;5019500;28;20422;-68
2024/01/21 09:48:54;;;;;;;28.63;19.07;;;-0.60;99.90;;;;;;5015435;28;20463;-68
2024/01/21 09:51:20;;;;;;;32.07;17.47;;;-0.60;99.90;;;;;;5019157;28;20521;-68
2024/01/21 09:53:47;;;;;;;28.20;16.63;;;-0.40;99.90;;;;;;5016193;28;20455;-68
2024/01/21 09:56:13;;;;;;;32.53;19.40;;;-0.30;99.90;;;;;;5021222;28;20437;-68
2024/01/21 09:58:52;;;;;;;27.33;16.10;;;-0.10;99.90;;;;;;5016119;28;20501;-68
2024/01/21 10:01:19;;;;;;;31.47;18.63;;;-0.20;99.90;;;;;;5017600;28;20512;-68
2024/01/21 10:03:45;;;;;;;31.83;16.53;;;0.00;99.90;;;;;;4998124;28;20446;-68
2024/01/21 10:06:11;;;;;;;29.10;16.63;;;0.10;99.90;;;;;;5019005;28;20420;-68
2024/01/21 10:08:40;;;;;;;28.57;17.23;;;0.10;99.90;;;;;;5017160;28;20438;-68
2024/01/21 10:11:07;;;;;;;29.50;17.20;;;0.30;99.90;;;;;;5018813;28;20467;-69
2024/01/21 10:13:39;;;;;;;30.57;17.67;;;0.50;99.90;;;;;;5012092;28;20427;-69
2024/01/21 10:16:06;;;;;;;30.60;16.93;;;0.70;99.90;;;;;;5010172;28;20455;-66
2024/01/21 10:18:31;;;;;;;36.33;18.60;;;0.80;99.90;;;;;;5011563;28;20420;-66
2024/01/21 10:20:58;;;;;;;33.77;16.13;;;0.90;99.90;;;;;;5014567;28;20449;-67
2024/01/21 10:23:24;;;;;;;30.03;17.70;;;1.00;99.90;;;;;;5010142;28;20821;-67
2024/01/21 10:25:50;;;;;;;29.93;18.27;;;1.00;99.90;;;;;;5012546;28;20510;-67
2024/01/21 10:28:17;;;;;;;29.00;17.23;;;1.00;99.90;;;;;;5010362;28;20267;-68
2024/01/21 10:30:46;;;;;;;37.57;20.47;;;1.10;99.90;;;;;;5010711;28;20886;-68
2024/01/21 10:33:13;;;;;;;38.87;20.07;;;1.10;99.90;;;;;;5017931;28;20430;-68
2024/01/21 10:35:39;;;;;;;29.97;18.37;;;0.90;99.90;;;;;;5012609;28;20437;-68
2024/01/21 10:38:14;;;;;;;28.80;18.87;;;0.70;99.90;;;;;;5018449;28;20900;-68
2024/01/21 10:40:43;;;;;;;32.17;18.20;;;0.80;99.90;;;;;;5012014;28;20437;-68
2024/01/21 10:43:16;;;;;;;31.27;19.50;;;1.00;99.90;;;;;;5015477;28;20962;-68
2024/01/21 10:45:46;;;;;;;35.47;20.73;;;1.10;99.90;;;;;;5016002;28;20425;-68
2024/01/21 10:48:15;;;;;;;34.70;20.37;;;1.20;99.90;;;;;;5015214;28;20437;-69
2024/01/21 10:50:42;;;;;;;38.27;21.37;;;1.30;99.90;;;;;;5016251;28;21116;-68
2024/01/21 10:53:11;;;;;;;37.23;21.80;;;1.30;99.90;;;;;;5013203;28;20427;-68
2024/01/21 10:55:41;;;;;;;36.27;22.27;;;1.20;99.90;;;;;;5014774;28;20436;-68
2024/01/21 10:58:08;;;;;;;35.87;20.17;;;1.30;99.90;;;;;;5020815;28;20417;-68
2024/01/21 11:00:37;;;;;;;34.77;19.27;;;1.20;99.90;;;;;;5018724;28;20953;-68
2024/01/21 11:03:25;;;;;;;40.10;21.73;;;1.10;99.90;;;;;;5017690;28;20468;-68
2024/01/21 11:06:03;;;;;;;35.80;22.27;;;0.90;99.90;;;;;;5020133;28;20465;-68
2024/01/21 11:08:30;;;;;;;36.13;22.57;;;0.90;99.90;;;;;;5018672;28;20512;-68
2024/01/21 11:11:16;;;;;;;39.70;20.57;;;0.90;99.90;;;;;;5016000;28;20470;-68
2024/01/21 11:13:46;;;;;;;34.97;19.10;;;0.90;99.90;;;;;;5022152;28;20458;-68
2024/01/21 11:16:32;;;;;;;34.47;20.40;;;1.00;99.90;;;;;;5023123;28;20454;-67
2024/01/21 11:18:58;;;;;;;37.57;19.90;;;1.00;99.90;;;;;;5015095;28;20519;-68
2024/01/21 11:21:27;;;;;;;37.50;21.23;;;1.00;99.90;;;;;;5020613;28;20427;-68
2024/01/21 11:24:02;;;;;;;37.20;21.60;;;1.00;99.90;;;;;;5026916;28;21145;-68
2024/01/21 11:26:32;;;;;;;32.73;18.60;;;0.90;99.90;;;;;;5011880;28;20799;-68
2024/01/21 11:29:02;;;;;;;33.63;19.17;;;0.90;99.90;;;;;;5017527;28;20437;-68
2024/01/21 11:31:32;;;;;;;35.60;20.50;;;0.80;99.90;;;;;;5022782;28;20458;-67
2024/01/21 11:34:05;;;;;;;32.83;20.50;;;0.80;99.90;;;;;;5017453;28;20461;-68
2024/01/21 11:36:32;;;;;;;42.53;21.73;;;0.70;99.90;;;;;;5018414;28;20781;-68
2024/01/21 11:38:59;;;;;;;36.27;20.73;;;0.80;99.90;;;;;;5023130;28;20913;-68
2024/01/21 11:41:41;;;;;;;37.87;22.20;;;0.80;99.90;;;;;;5014349;28;20418;-68
2024/01/21 11:44:23;;;;;;;36.17;21.93;;;0.90;99.90;;;;;;5012670;28;20471;-68
2024/01/21 11:46:49;;;;;;;38.50;21.20;;;1.00;99.90;;;;;;5017644;28;20452;-68
2024/01/21 11:49:15;;;;;;;40.80;20.87;;;1.10;99.90;;;;;;5019020;28;20481;-68
2024/01/21 11:51:42;;;;;;;36.13;20.00;;;1.20;99.90;;;;;;5012959;28;20470;-68
2024/01/21 11:54:08;;;;;;;35.27;21.40;;;1.30;99.90;;;;;;5016033;28;20470;-68
2024/01/21 11:56:37;;;;;;;35.70;21.03;;;1.40;99.90;;;;;;5017908;28;20422;-69
2024/01/21 11:59:08;;;;;;;34.07;19.93;;;1.60;99.90;;;;;;5018037;28;20431;-68
2024/01/21 12:01:34;;;;;;;31.03;20.60;;;1.70;99.90;;;;;;5014281;28;20431;-68
2024/01/21 12:04:01;;;;;;;34.73;21.47;;;1.90;99.90;;;;;;5016054;28;20442;-68
2024/01/21 12:06:28;;;;;;;28.40;18.80;;;1.90;99.90;;;;;;5009977;28;20426;-68
2024/01/21 12:08:54;;;;;;;34.53;21.00;;;2.10;99.90;;;;;;5015215;28;20440;-68
2024/01/21 12:11:20;;;;;;;32.67;20.87;;;2.20;99.90;;;;;;5015456;28;20478;-68
2024/01/21 12:13:45;;;;;;;31.30;19.90;;;2.40;99.90;;;;;;5013759;28;20490;-68
2024/01/21 12:16:11;;;;;;;29.80;19.37;;;2.40;99.90;;;;;;5018958;28;20714;-68
2024/01/21 12:18:41;;;;;;;33.83;20.00;;;2.50;99.90;;;;;;5014064;28;20420;-69
2024/01/21 12:21:07;;;;;;;28.73;18.50;;;2.70;99.90;;;;;;5014007;28;20853;-68
2024/01/21 12:23:35;;;;;;;25.27;16.80;;;3.00;99.90;;;;;;5013720;28;20435;-68
2024/01/21 12:26:01;;;;;;;22.73;16.47;;;3.80;99.90;;;;;;5010869;28;20459;-68